createdAt,value
2022-07-29T00:00:14.423Z,100.00
2022-07-29T00:01:19.111Z,100.00
2022-07-29T00:02:22.569Z,100.00
2022-07-29T00:03:25.271Z,100.00
2022-07-29T00:04:28.020Z,100.00
2022-07-29T00:05:30.597Z,100.00
2022-07-29T00:06:33.621Z,100.00
2022-07-29T00:07:36.612Z,100.00
2022-07-29T00:08:39.257Z,100.00
2022-07-29T00:09:50.389Z,100.00
2022-07-29T00:10:46.385Z,100.00
2022-07-29T00:11:49.011Z,100.00
2022-07-29T00:12:51.714Z,100.00
2022-07-29T00:13:55.062Z,100.00
2022-07-29T00:14:57.631Z,100.00
2022-07-29T00:16:04.764Z,100.00
2022-07-29T00:17:04.814Z,100.00
2022-07-29T00:18:07.383Z,100.00
2022-07-29T00:19:10.048Z,100.00
2022-07-29T00:20:14.764Z,100.00
2022-07-29T00:21:18.356Z,100.00
2022-07-29T00:22:21.541Z,100.00
2022-07-29T00:23:24.519Z,100.00
2022-07-29T00:24:27.185Z,100.00
2022-07-29T00:25:29.745Z,100.00
2022-07-29T00:26:34.122Z,100.00
2022-07-29T00:27:36.725Z,100.00
2022-07-29T00:28:39.380Z,100.00
2022-07-29T00:29:41.912Z,100.00
2022-07-29T00:30:45.098Z,100.00
2022-07-29T00:31:47.782Z,100.00
2022-07-29T00:32:50.795Z,100.00
2022-07-29T00:33:53.452Z,100.00
2022-07-29T00:34:56.025Z,100.00
2022-07-29T00:35:58.589Z,100.00
2022-07-29T00:37:01.465Z,100.00
2022-07-29T00:38:04.048Z,100.00
2022-07-29T00:39:06.596Z,100.00
2022-07-29T00:40:10.083Z,100.00
2022-07-29T00:41:13.077Z,100.00
2022-07-29T00:42:15.729Z,100.00
2022-07-29T00:43:18.296Z,100.00
2022-07-29T00:44:20.882Z,100.00
2022-07-29T00:45:23.538Z,100.00
2022-07-29T00:46:27.971Z,100.00
2022-07-29T00:47:30.852Z,100.00
2022-07-29T00:48:33.489Z,100.00
2022-07-29T00:49:36.262Z,100.00
2022-07-29T00:50:39.239Z,100.00
2022-07-29T00:51:41.873Z,100.00
2022-07-29T00:52:44.470Z,100.00
2022-07-29T00:53:47.143Z,100.00
2022-07-29T00:54:49.707Z,100.00
2022-07-29T00:55:52.488Z,100.00
2022-07-29T00:56:55.562Z,100.00
2022-07-29T00:57:58.223Z,100.00
2022-07-29T00:59:00.802Z,100.00
2022-07-29T01:00:03.565Z,100.00
2022-07-29T01:01:06.783Z,100.00
2022-07-29T01:02:09.992Z,100.00
2022-07-29T01:03:12.804Z,100.00
2022-07-29T01:04:15.866Z,100.00
2022-07-29T01:05:20.005Z,100.00
2022-07-29T01:06:24.186Z,100.00
2022-07-29T01:07:26.831Z,100.00
2022-07-29T01:08:29.427Z,100.00
2022-07-29T01:09:40.875Z,100.00
2022-07-29T01:10:36.604Z,100.00
2022-07-29T01:11:39.400Z,100.00
2022-07-29T01:12:42.112Z,100.00
2022-07-29T01:13:44.713Z,100.00
2022-07-29T01:14:47.283Z,100.00
2022-07-29T01:15:50.010Z,100.00
2022-07-29T01:16:53.468Z,100.00
2022-07-29T01:17:56.117Z,100.00
2022-07-29T01:18:58.739Z,100.00
2022-07-29T01:20:01.348Z,100.00
2022-07-29T01:21:03.911Z,100.00
2022-07-29T01:22:06.478Z,100.00
2022-07-29T01:23:09.147Z,100.00
2022-07-29T01:24:12.090Z,100.00
2022-07-29T01:25:14.692Z,100.00
2022-07-29T01:26:20.442Z,100.00
2022-07-29T01:27:22.487Z,100.00
2022-07-29T01:28:25.462Z,100.00
2022-07-29T01:29:31.014Z,100.00
2022-07-29T01:30:34.428Z,100.00
2022-07-29T01:31:42.569Z,100.00
2022-07-29T01:32:41.466Z,100.00
2022-07-29T01:33:44.133Z,100.00
2022-07-29T01:34:46.704Z,100.00
2022-07-29T01:35:51.214Z,100.00
2022-07-29T01:36:53.887Z,100.00
2022-07-29T01:37:56.592Z,100.00
2022-07-29T01:38:59.204Z,100.00
2022-07-29T01:40:01.791Z,100.00
2022-07-29T01:41:04.456Z,100.00
2022-07-29T01:42:07.227Z,100.00
2022-07-29T01:43:09.796Z,100.00
2022-07-29T01:44:12.456Z,100.00
2022-07-29T01:45:15.544Z,100.00
2022-07-29T01:46:18.571Z,100.00
2022-07-29T01:47:21.461Z,100.00
2022-07-29T01:48:24.033Z,100.00
2022-07-29T01:49:26.643Z,100.00
2022-07-29T01:50:31.247Z,100.00
2022-07-29T01:51:33.813Z,100.00
2022-07-29T01:52:36.481Z,100.00
2022-07-29T01:53:39.182Z,100.00
2022-07-29T01:54:41.777Z,100.00
2022-07-29T01:55:44.387Z,100.00
2022-07-29T01:56:47.368Z,100.00
2022-07-29T01:57:49.930Z,100.00
2022-07-29T01:58:52.455Z,100.00
2022-07-29T01:59:55.637Z,100.00
2022-07-29T02:00:58.346Z,100.00
2022-07-29T02:02:00.957Z,100.00
2022-07-29T02:03:03.686Z,100.00
2022-07-29T02:04:06.315Z,100.00
2022-07-29T02:05:08.948Z,100.00
2022-07-29T02:06:12.306Z,100.00
2022-07-29T02:07:14.891Z,100.00
2022-07-29T02:08:17.455Z,100.00
2022-07-29T02:09:20.013Z,100.00
2022-07-29T02:10:25.847Z,100.00
2022-07-29T02:11:28.621Z,100.00
2022-07-29T02:12:31.149Z,100.00
2022-07-29T02:13:33.757Z,100.00
2022-07-29T02:14:36.424Z,100.00
2022-07-29T02:15:39.160Z,100.00
2022-07-29T02:16:42.378Z,100.00
2022-07-29T02:17:44.968Z,100.00
2022-07-29T02:18:47.614Z,100.00
2022-07-29T02:19:50.284Z,100.00
2022-07-29T02:20:53.364Z,100.00
2022-07-29T02:21:56.259Z,100.00
2022-07-29T02:22:58.908Z,100.00
2022-07-29T02:24:01.942Z,100.00
2022-07-29T02:25:04.558Z,100.00
2022-07-29T02:26:07.637Z,100.00
2022-07-29T02:27:10.408Z,100.00
2022-07-29T02:28:13.027Z,100.00
2022-07-29T02:29:15.598Z,100.00
2022-07-29T02:30:19.945Z,100.00
2022-07-29T02:31:22.580Z,100.00
2022-07-29T02:32:25.490Z,100.00
2022-07-29T02:33:28.771Z,100.00
2022-07-29T02:34:31.348Z,100.00
2022-07-29T02:35:34.546Z,100.00
2022-07-29T02:36:37.941Z,100.00
2022-07-29T02:37:40.585Z,100.00
2022-07-29T02:38:43.245Z,100.00
2022-07-29T02:39:45.935Z,100.00
2022-07-29T02:40:49.000Z,100.00
2022-07-29T02:41:52.485Z,100.00
2022-07-29T02:42:55.151Z,100.00
2022-07-29T02:43:57.717Z,100.00
2022-07-29T02:45:00.285Z,100.00
2022-07-29T02:46:03.015Z,100.00
2022-07-29T02:47:06.036Z,100.00
2022-07-29T02:48:08.662Z,100.00
2022-07-29T02:49:11.332Z,100.00
2022-07-29T02:50:15.130Z,100.00
2022-07-29T02:51:41.380Z,100.00
2022-07-29T02:52:22.348Z,100.00
2022-07-29T02:53:24.924Z,100.00
2022-07-29T02:54:27.484Z,100.00
2022-07-29T02:55:30.151Z,100.00
2022-07-29T02:56:33.640Z,100.00
2022-07-29T02:57:36.270Z,100.00
2022-07-29T02:58:40.821Z,100.00
2022-07-29T02:59:43.491Z,100.00
2022-07-29T03:00:46.474Z,100.00
2022-07-29T03:01:49.248Z,100.00
2022-07-29T03:02:51.908Z,100.00
2022-07-29T03:03:54.455Z,100.00
2022-07-29T03:04:57.081Z,100.00
2022-07-29T03:06:01.050Z,100.00
2022-07-29T03:07:03.712Z,100.00
2022-07-29T03:08:06.491Z,100.00
2022-07-29T03:09:13.009Z,100.00
2022-07-29T03:10:14.070Z,100.00
2022-07-29T03:11:16.645Z,100.00
2022-07-29T03:12:19.175Z,100.00
2022-07-29T03:13:21.845Z,100.00
2022-07-29T03:14:24.448Z,100.00
2022-07-29T03:15:27.018Z,100.00
2022-07-29T03:16:30.548Z,100.00
2022-07-29T03:17:33.175Z,100.00
2022-07-29T03:18:35.840Z,100.00
2022-07-29T03:19:38.512Z,100.00
2022-07-29T03:20:42.101Z,100.00
2022-07-29T03:21:44.770Z,100.00
2022-07-29T03:22:47.405Z,100.00
2022-07-29T03:23:50.721Z,100.00
2022-07-29T03:24:53.288Z,100.00
2022-07-29T03:25:56.007Z,100.00
2022-07-29T03:27:00.076Z,100.00
2022-07-29T03:28:02.742Z,100.00
2022-07-29T03:29:05.781Z,100.00
2022-07-29T03:30:09.019Z,100.00
2022-07-29T03:31:11.885Z,100.00
2022-07-29T03:32:15.453Z,100.00
2022-07-29T03:33:19.823Z,100.00
2022-07-29T03:34:23.558Z,100.00
2022-07-29T03:35:26.532Z,100.00
2022-07-29T03:36:30.944Z,100.00
2022-07-29T03:37:33.616Z,100.00
2022-07-29T03:38:36.180Z,100.00
2022-07-29T03:39:39.217Z,100.00
2022-07-29T03:40:42.033Z,100.00
2022-07-29T03:41:44.660Z,100.00
2022-07-29T03:42:47.682Z,100.00
2022-07-29T03:43:50.930Z,100.00
2022-07-29T03:44:53.528Z,100.00
2022-07-29T03:45:56.263Z,100.00
2022-07-29T03:46:59.289Z,100.00
2022-07-29T03:48:01.952Z,100.00
2022-07-29T03:49:04.733Z,100.00
2022-07-29T03:50:08.161Z,100.00
2022-07-29T03:51:12.717Z,100.00
2022-07-29T03:52:15.298Z,100.00
2022-07-29T03:53:17.912Z,100.00
2022-07-29T03:54:21.271Z,100.00
2022-07-29T03:55:24.319Z,100.00
2022-07-29T03:56:28.932Z,100.00
2022-07-29T03:57:31.503Z,100.00
2022-07-29T03:58:34.169Z,100.00
2022-07-29T03:59:36.732Z,100.00
2022-07-29T04:00:40.425Z,100.00
2022-07-29T04:01:43.127Z,100.00
2022-07-29T04:02:45.768Z,100.00
2022-07-29T04:03:48.379Z,100.00
2022-07-29T04:04:51.148Z,100.00
2022-07-29T04:05:53.777Z,100.00
2022-07-29T04:06:57.060Z,100.00
2022-07-29T04:07:59.725Z,100.00
2022-07-29T04:09:02.250Z,100.00
2022-07-29T04:10:05.065Z,100.00
2022-07-29T04:11:08.073Z,100.00
2022-07-29T04:12:10.708Z,100.00
2022-07-29T04:13:13.238Z,100.00
2022-07-29T04:14:16.179Z,100.00
2022-07-29T04:15:18.946Z,100.00
2022-07-29T04:16:22.625Z,100.00
2022-07-29T04:17:25.385Z,100.00
2022-07-29T04:18:27.955Z,100.00
2022-07-29T04:19:30.724Z,100.00
2022-07-29T04:20:34.112Z,100.00
2022-07-29T04:21:36.847Z,100.00
2022-07-29T04:22:39.557Z,100.00
2022-07-29T04:23:47.967Z,100.00
2022-07-29T04:24:46.732Z,100.00
2022-07-29T04:25:49.258Z,100.00
2022-07-29T04:26:52.073Z,100.00
2022-07-29T04:27:55.010Z,100.00
2022-07-29T04:28:57.619Z,100.00
2022-07-29T04:30:00.295Z,100.00
2022-07-29T04:31:03.009Z,100.00
2022-07-29T04:32:05.730Z,100.00
2022-07-29T04:33:08.397Z,100.00
2022-07-29T04:34:10.920Z,100.00
2022-07-29T04:35:13.551Z,100.00
2022-07-29T04:36:28.386Z,100.00
2022-07-29T04:37:22.460Z,100.00
2022-07-29T04:38:25.022Z,100.00
2022-07-29T04:39:29.594Z,100.00
2022-07-29T04:40:33.388Z,100.00
2022-07-29T04:41:36.821Z,100.00
2022-07-29T04:42:43.949Z,100.00
2022-07-29T04:43:44.630Z,100.00
2022-07-29T04:44:48.512Z,100.00
2022-07-29T04:45:53.054Z,100.00
2022-07-29T04:46:56.520Z,100.00
2022-07-29T04:47:59.200Z,100.00
2022-07-29T04:49:01.844Z,100.00
2022-07-29T04:50:04.934Z,100.00
2022-07-29T04:51:07.601Z,100.00
2022-07-29T04:52:10.276Z,100.00
2022-07-29T04:53:13.041Z,100.00
2022-07-29T04:54:15.842Z,100.00
2022-07-29T04:55:18.892Z,100.00
2022-07-29T04:56:22.793Z,100.00
2022-07-29T04:57:25.415Z,100.00
2022-07-29T04:58:28.029Z,100.00
2022-07-29T04:59:30.654Z,100.00
2022-07-29T05:00:33.885Z,100.00
2022-07-29T05:01:37.028Z,100.00
2022-07-29T05:02:39.797Z,100.00
2022-07-29T05:03:42.819Z,100.00
2022-07-29T05:04:45.681Z,100.00
2022-07-29T05:05:48.360Z,100.00
2022-07-29T05:06:51.327Z,100.00
2022-07-29T05:07:53.955Z,100.00
2022-07-29T05:08:56.672Z,100.00
2022-07-29T05:09:59.414Z,100.00
2022-07-29T05:11:11.663Z,100.00
2022-07-29T05:12:06.719Z,100.00
2022-07-29T05:13:09.350Z,100.00
2022-07-29T05:14:11.972Z,100.00
2022-07-29T05:15:14.626Z,100.00
2022-07-29T05:16:18.433Z,100.00
2022-07-29T05:17:21.092Z,100.00
2022-07-29T05:18:25.883Z,100.00
2022-07-29T05:19:28.270Z,100.00
2022-07-29T05:20:31.862Z,100.00
2022-07-29T05:21:34.840Z,100.00
2022-07-29T05:22:38.124Z,100.00
2022-07-29T05:23:40.783Z,100.00
2022-07-29T05:24:43.351Z,100.00
2022-07-29T05:25:45.935Z,100.00
2022-07-29T05:26:48.864Z,99.15
2022-07-29T05:27:51.461Z,98.92
2022-07-29T05:28:54.029Z,98.16
2022-07-29T05:29:56.699Z,96.58
2022-07-29T05:30:59.752Z,98.41
2022-07-29T05:32:02.447Z,98.27
2022-07-29T05:33:05.013Z,99.48
2022-07-29T05:34:07.582Z,98.34
2022-07-29T05:35:10.150Z,98.54
2022-07-29T05:36:14.046Z,96.27
2022-07-29T05:37:16.620Z,97.66
2022-07-29T05:38:19.280Z,95.51
2022-07-29T05:39:22.013Z,96.24
2022-07-29T05:40:25.650Z,95.05
2022-07-29T05:41:28.311Z,96.05
2022-07-29T05:42:30.943Z,94.30
2022-07-29T05:43:33.691Z,92.88
2022-07-29T05:44:36.282Z,93.78
2022-07-29T05:45:49.971Z,93.22
2022-07-29T05:46:43.748Z,91.84
2022-07-29T05:47:46.400Z,94.43
2022-07-29T05:48:49.098Z,93.73
2022-07-29T05:49:51.826Z,89.87
2022-07-29T05:50:54.693Z,91.41
2022-07-29T05:51:57.363Z,91.64
2022-07-29T05:53:00.027Z,91.99
2022-07-29T05:54:04.543Z,90.75
2022-07-29T05:55:07.211Z,90.33
2022-07-29T05:56:10.904Z,88.17
2022-07-29T05:57:13.880Z,89.82
2022-07-29T05:58:16.450Z,88.82
2022-07-29T05:59:19.014Z,87.85
2022-07-29T06:00:22.531Z,89.29
2022-07-29T06:01:25.864Z,88.79
2022-07-29T06:02:28.766Z,88.84
2022-07-29T06:03:31.742Z,88.46
2022-07-29T06:04:34.470Z,88.57
2022-07-29T06:05:37.435Z,89.69
2022-07-29T06:06:40.267Z,87.92
2022-07-29T06:07:50.218Z,88.94
2022-07-29T06:08:47.403Z,88.65
2022-07-29T06:09:50.015Z,88.76
2022-07-29T06:10:53.190Z,88.02
2022-07-29T06:11:55.767Z,89.77
2022-07-29T06:12:58.741Z,87.58
2022-07-29T06:14:01.404Z,88.40
2022-07-29T06:15:04.111Z,88.02
2022-07-29T06:16:06.945Z,88.21
2022-07-29T06:17:09.825Z,87.77
2022-07-29T06:18:12.492Z,85.70
2022-07-29T06:19:15.060Z,81.81
2022-07-29T06:20:19.063Z,81.32
2022-07-29T06:21:23.771Z,82.85
2022-07-29T06:22:26.808Z,81.34
2022-07-29T06:23:29.425Z,80.87
2022-07-29T06:24:32.127Z,80.16
2022-07-29T06:25:34.769Z,77.41
2022-07-29T06:26:39.655Z,80.03
2022-07-29T06:27:42.370Z,80.63
2022-07-29T06:28:45.027Z,80.09
2022-07-29T06:29:47.584Z,81.18
2022-07-29T06:30:50.425Z,78.79
2022-07-29T06:31:53.339Z,77.37
2022-07-29T06:32:55.909Z,77.71
2022-07-29T06:33:58.466Z,75.48
2022-07-29T06:35:31.946Z,76.05
2022-07-29T06:36:05.606Z,76.58
2022-07-29T06:37:08.226Z,77.00
2022-07-29T06:38:31.593Z,77.32
2022-07-29T06:39:17.356Z,79.44
2022-07-29T06:40:21.403Z,76.93
2022-07-29T06:41:24.733Z,77.44
2022-07-29T06:42:27.416Z,78.39
2022-07-29T06:43:30.374Z,78.65
2022-07-29T06:44:32.896Z,80.08
2022-07-29T06:45:35.429Z,80.06
2022-07-29T06:46:38.686Z,79.61
2022-07-29T06:47:41.358Z,82.07
2022-07-29T06:48:43.968Z,81.05
2022-07-29T06:49:46.595Z,78.96
2022-07-29T06:50:49.683Z,79.47
2022-07-29T06:51:52.368Z,81.23
2022-07-29T06:52:55.318Z,80.63
2022-07-29T06:54:00.217Z,79.56
2022-07-29T06:55:02.299Z,81.68
2022-07-29T06:56:05.108Z,80.52
2022-07-29T06:57:07.842Z,78.22
2022-07-29T06:58:10.507Z,78.60
2022-07-29T06:59:13.291Z,76.71
2022-07-29T07:00:16.459Z,78.30
2022-07-29T07:01:19.489Z,74.07
2022-07-29T07:02:22.491Z,73.24
2022-07-29T07:03:25.394Z,72.50
2022-07-29T07:04:28.059Z,72.18
2022-07-29T07:05:30.623Z,72.07
2022-07-29T07:06:33.396Z,71.57
2022-07-29T07:07:35.964Z,71.92
2022-07-29T07:08:38.736Z,70.25
2022-07-29T07:09:41.263Z,69.24
2022-07-29T07:10:44.072Z,66.46
2022-07-29T07:11:46.681Z,66.40
2022-07-29T07:12:51.172Z,67.70
2022-07-29T07:13:53.739Z,68.48
2022-07-29T07:14:56.332Z,66.15
2022-07-29T07:15:58.853Z,65.84
2022-07-29T07:17:01.971Z,68.03
2022-07-29T07:18:04.653Z,67.78
2022-07-29T07:19:07.384Z,65.75
2022-07-29T07:20:10.451Z,66.16
2022-07-29T07:21:19.277Z,64.75
2022-07-29T07:22:18.356Z,66.35
2022-07-29T07:23:22.759Z,67.50
2022-07-29T07:24:25.532Z,65.76
2022-07-29T07:25:28.204Z,62.86
2022-07-29T07:26:31.486Z,64.75
2022-07-29T07:27:34.051Z,61.25
2022-07-29T07:28:36.842Z,64.64
2022-07-29T07:29:39.394Z,63.38
2022-07-29T07:30:42.167Z,62.33
2022-07-29T07:31:44.918Z,61.58
2022-07-29T07:32:47.810Z,63.75
2022-07-29T07:33:50.438Z,62.86
2022-07-29T07:34:53.044Z,62.92
2022-07-29T07:35:55.716Z,64.74
2022-07-29T07:36:58.860Z,65.32
2022-07-29T07:38:01.421Z,62.99
2022-07-29T07:39:04.203Z,63.57
2022-07-29T07:40:07.942Z,62.36
2022-07-29T07:41:10.501Z,63.34
2022-07-29T07:42:13.368Z,62.88
2022-07-29T07:43:16.445Z,63.55
2022-07-29T07:44:19.253Z,61.18
2022-07-29T07:45:22.301Z,58.06
2022-07-29T07:46:26.881Z,58.75
2022-07-29T07:47:29.787Z,57.85
2022-07-29T07:48:32.354Z,59.63
2022-07-29T07:49:34.893Z,61.98
2022-07-29T07:50:37.819Z,59.77
2022-07-29T07:51:40.773Z,62.86
2022-07-29T07:52:43.441Z,61.73
2022-07-29T07:53:46.113Z,61.79
2022-07-29T07:54:49.090Z,62.89
2022-07-29T07:56:56.677Z,61.42
2022-07-29T07:57:59.244Z,57.28
2022-07-29T07:59:01.929Z,57.63
2022-07-29T08:00:04.990Z,58.96
2022-07-29T08:01:07.883Z,60.48
2022-07-29T08:02:11.101Z,62.17
2022-07-29T08:03:17.137Z,59.79
2022-07-29T08:04:22.190Z,60.01
2022-07-29T08:05:23.114Z,59.44
2022-07-29T08:06:26.749Z,59.06
2022-07-29T08:07:29.314Z,58.49
2022-07-29T08:08:32.128Z,57.51
2022-07-29T08:09:34.753Z,55.69
2022-07-29T08:10:37.427Z,55.48
2022-07-29T08:11:40.189Z,53.88
2022-07-29T08:12:44.699Z,54.44
2022-07-29T08:13:47.269Z,51.69
2022-07-29T08:14:49.854Z,54.03
2022-07-29T08:15:52.363Z,52.90
2022-07-29T08:16:55.325Z,56.21
2022-07-29T08:17:58.277Z,55.40
2022-07-29T08:19:00.833Z,56.33
2022-07-29T08:20:03.593Z,55.15
2022-07-29T08:21:06.080Z,54.70
2022-07-29T08:22:08.829Z,55.44
2022-07-29T08:23:11.863Z,55.55
2022-07-29T08:24:14.887Z,54.13
2022-07-29T08:25:17.558Z,55.22
2022-07-29T08:26:20.836Z,56.00
2022-07-29T08:27:42.375Z,55.84
2022-07-29T08:28:28.016Z,55.32
2022-07-29T08:29:30.584Z,54.34
2022-07-29T08:30:34.951Z,55.35
2022-07-29T08:31:37.607Z,56.29
2022-07-29T08:32:56.181Z,56.93
2022-07-29T08:33:44.847Z,55.67
2022-07-29T08:34:47.678Z,56.95
2022-07-29T08:35:50.293Z,57.51
2022-07-29T08:36:53.367Z,59.33
2022-07-29T08:37:56.037Z,59.41
2022-07-29T08:38:58.625Z,58.69
2022-07-29T08:40:01.273Z,61.53
2022-07-29T08:41:03.942Z,58.50
2022-07-29T08:42:06.669Z,57.27
2022-07-29T08:43:09.329Z,59.22
2022-07-29T08:44:12.053Z,59.05
2022-07-29T08:45:14.649Z,58.54
2022-07-29T08:46:19.112Z,59.15
2022-07-29T08:47:21.759Z,58.20
2022-07-29T08:48:24.674Z,58.75
2022-07-29T08:49:27.401Z,59.53
2022-07-29T08:50:31.033Z,56.59
2022-07-29T08:51:33.599Z,58.89
2022-07-29T08:52:38.025Z,57.71
2022-07-29T08:53:40.724Z,55.59
2022-07-29T08:54:43.353Z,54.13
2022-07-29T08:55:46.024Z,54.00
2022-07-29T08:56:48.688Z,54.23
2022-07-29T08:57:54.474Z,53.73
2022-07-29T08:58:55.769Z,53.81
2022-07-29T08:59:58.540Z,54.62
2022-07-29T09:01:02.887Z,54.65
2022-07-29T09:02:05.755Z,54.76
2022-07-29T09:03:11.994Z,52.87
2022-07-29T09:04:14.749Z,53.29
2022-07-29T09:05:17.417Z,53.64
2022-07-29T09:06:21.928Z,52.06
2022-07-29T09:07:24.600Z,52.53
2022-07-29T09:08:29.109Z,52.18
2022-07-29T09:09:31.788Z,52.35
2022-07-29T09:10:34.857Z,53.47
2022-07-29T09:11:37.449Z,52.76
2022-07-29T09:12:40.096Z,50.17
2022-07-29T09:13:42.726Z,51.63
2022-07-29T09:14:45.329Z,51.87
2022-07-29T09:15:47.896Z,54.48
2022-07-29T09:16:53.458Z,51.05
2022-07-29T09:17:55.489Z,51.39
2022-07-29T09:18:58.270Z,53.09
2022-07-29T09:20:00.932Z,52.00
2022-07-29T09:21:03.495Z,51.82
2022-07-29T09:22:06.538Z,50.23
2022-07-29T09:23:09.551Z,50.82
2022-07-29T09:24:12.124Z,53.40
2022-07-29T09:25:14.991Z,52.82
2022-07-29T09:26:18.753Z,49.79
2022-07-29T09:27:21.392Z,50.21
2022-07-29T09:28:23.921Z,48.75
2022-07-29T09:29:26.653Z,46.67
2022-07-29T09:30:31.867Z,49.44
2022-07-29T09:31:34.937Z,48.82
2022-07-29T09:32:37.881Z,48.30
2022-07-29T09:33:40.545Z,46.58
2022-07-29T09:34:43.213Z,47.93
2022-07-29T09:35:56.568Z,47.85
2022-07-29T09:36:50.560Z,46.85
2022-07-29T09:37:53.173Z,46.12
2022-07-29T09:38:55.836Z,46.36
2022-07-29T09:39:58.464Z,45.26
2022-07-29T09:41:06.125Z,45.79
2022-07-29T09:42:05.900Z,45.02
2022-07-29T09:43:08.522Z,47.95
2022-07-29T09:44:11.229Z,45.00
2022-07-29T09:45:13.757Z,46.49
2022-07-29T09:46:17.868Z,47.74
2022-07-29T09:47:20.776Z,47.85
2022-07-29T09:48:23.343Z,46.63
2022-07-29T09:49:26.114Z,45.93
2022-07-29T09:50:29.249Z,45.63
2022-07-29T09:51:37.845Z,46.40
2022-07-29T09:52:36.373Z,48.67
2022-07-29T09:53:39.349Z,49.58
2022-07-29T09:54:41.978Z,49.25
2022-07-29T09:55:44.587Z,46.87
2022-07-29T09:56:47.831Z,48.89
2022-07-29T09:57:50.435Z,46.77
2022-07-29T09:58:53.104Z,47.03
2022-07-29T09:59:55.673Z,47.41
2022-07-29T10:00:58.665Z,48.71
2022-07-29T10:02:01.866Z,46.93
2022-07-29T10:03:06.059Z,45.60
2022-07-29T10:04:09.033Z,44.62
2022-07-29T10:05:11.711Z,46.64
2022-07-29T10:06:16.191Z,45.96
2022-07-29T10:07:18.758Z,46.03
2022-07-29T10:08:21.325Z,46.59
2022-07-29T10:09:23.892Z,46.46
2022-07-29T10:10:27.280Z,45.65
2022-07-29T10:11:37.830Z,44.02
2022-07-29T10:12:34.365Z,43.17
2022-07-29T10:13:37.130Z,44.57
2022-07-29T10:14:39.757Z,44.46
2022-07-29T10:15:42.367Z,44.96
2022-07-29T10:16:45.405Z,45.89
2022-07-29T10:17:48.320Z,44.80
2022-07-29T10:18:50.889Z,46.06
2022-07-29T10:19:55.501Z,46.26
2022-07-29T10:20:59.399Z,45.55
2022-07-29T10:22:02.324Z,43.80
2022-07-29T10:23:06.811Z,44.21
2022-07-29T10:24:14.871Z,44.03
2022-07-29T10:26:24.012Z,44.44
2022-07-29T10:27:26.580Z,45.48
2022-07-29T10:28:29.144Z,45.23
2022-07-29T10:29:31.713Z,45.40
2022-07-29T10:30:35.055Z,46.12
2022-07-29T10:31:37.683Z,44.14
2022-07-29T10:32:40.741Z,44.81
2022-07-29T10:33:43.309Z,45.60
2022-07-29T10:34:46.084Z,44.79
2022-07-29T10:35:48.605Z,43.85
2022-07-29T10:36:51.423Z,44.97
2022-07-29T10:37:54.088Z,44.10
2022-07-29T10:38:57.993Z,44.23
2022-07-29T10:40:00.965Z,44.87
2022-07-29T10:41:03.530Z,44.00
2022-07-29T10:42:08.041Z,42.93
2022-07-29T10:43:12.051Z,43.11
2022-07-29T10:44:17.364Z,43.60
2022-07-29T10:45:21.237Z,43.09
2022-07-29T10:46:25.545Z,43.56
2022-07-29T10:47:28.567Z,42.65
2022-07-29T10:48:31.225Z,41.79
2022-07-29T10:49:34.237Z,41.65
2022-07-29T10:50:38.816Z,42.29
2022-07-29T10:51:41.385Z,41.31
2022-07-29T10:52:44.677Z,43.62
2022-07-29T10:53:47.297Z,41.74
2022-07-29T10:54:50.624Z,41.34
2022-07-29T10:55:53.187Z,41.93
2022-07-29T10:56:56.883Z,42.02
2022-07-29T10:57:59.553Z,41.09
2022-07-29T10:59:02.693Z,40.91
2022-07-29T11:00:05.809Z,40.80
2022-07-29T11:01:08.789Z,40.53
2022-07-29T11:02:36.464Z,40.21
2022-07-29T11:03:17.250Z,40.81
2022-07-29T11:04:20.181Z,40.92
2022-07-29T11:05:24.687Z,41.08
2022-07-29T11:06:29.509Z,41.57
2022-07-29T11:07:45.648Z,39.67
2022-07-29T11:08:36.690Z,41.98
2022-07-29T11:09:39.669Z,40.70
2022-07-29T11:10:42.949Z,42.20
2022-07-29T11:11:51.497Z,41.50
2022-07-29T11:12:51.973Z,41.35
2022-07-29T11:13:54.556Z,43.07
2022-07-29T11:14:57.315Z,41.96
2022-07-29T11:16:00.909Z,40.96
2022-07-29T11:17:06.505Z,39.55
2022-07-29T11:18:08.396Z,39.85
2022-07-29T11:19:13.428Z,40.67
2022-07-29T11:20:17.931Z,40.57
2022-07-29T11:21:23.321Z,41.19
2022-07-29T11:22:26.732Z,41.20
2022-07-29T11:23:33.864Z,42.72
2022-07-29T11:24:35.087Z,41.84
2022-07-29T11:25:50.729Z,42.02
2022-07-29T11:26:42.984Z,43.12
2022-07-29T11:27:47.470Z,42.87
2022-07-29T11:28:50.749Z,43.05
2022-07-29T11:29:53.595Z,42.00
2022-07-29T11:30:56.418Z,40.42
2022-07-29T11:32:00.559Z,42.61
2022-07-29T11:33:04.196Z,43.45
2022-07-29T11:34:07.197Z,42.00
2022-07-29T11:35:17.836Z,40.50
2022-07-29T11:36:16.763Z,40.96
2022-07-29T11:37:20.046Z,39.71
2022-07-29T11:38:23.993Z,38.83
2022-07-29T11:40:34.656Z,40.50
2022-07-29T11:41:39.381Z,39.80
2022-07-29T11:42:44.577Z,40.51
2022-07-29T11:43:47.272Z,40.22
2022-07-29T11:44:51.788Z,39.57
2022-07-29T11:45:55.377Z,41.72
2022-07-29T11:46:58.258Z,40.29
2022-07-29T11:48:28.982Z,40.35
2022-07-29T11:49:09.185Z,38.39
2022-07-29T11:50:11.902Z,40.56
2022-07-29T11:51:15.694Z,40.12
2022-07-29T11:52:18.977Z,39.81
2022-07-29T11:53:21.664Z,38.99
2022-07-29T11:55:32.337Z,40.60
2022-07-29T11:56:35.175Z,40.68
2022-07-29T11:57:39.444Z,40.12
2022-07-29T11:58:43.380Z,39.29
2022-07-29T11:59:47.178Z,41.31
2022-07-29T12:00:49.908Z,39.22
2022-07-29T12:02:02.425Z,38.44
2022-07-29T12:02:57.876Z,38.54
2022-07-29T12:04:02.260Z,39.86
2022-07-29T12:05:10.644Z,41.08
2022-07-29T12:06:11.346Z,38.48
2022-07-29T12:07:01.815Z,39.96
2022-07-29T12:07:15.871Z,39.42
2022-07-29T12:08:18.684Z,37.91
2022-07-29T12:09:21.640Z,40.05
2022-07-29T12:10:30.717Z,38.89
2022-07-29T12:11:31.720Z,42.44
2022-07-29T12:12:34.222Z,40.75
2022-07-29T12:13:37.061Z,38.61
2022-07-29T12:14:40.925Z,41.53
2022-07-29T12:15:46.107Z,38.98
2022-07-29T12:16:48.696Z,39.32
2022-07-29T12:17:51.599Z,37.52
2022-07-29T12:18:54.276Z,40.13
2022-07-29T12:19:56.935Z,39.76
2022-07-29T12:21:03.609Z,39.87
2022-07-29T12:22:05.202Z,39.05
2022-07-29T12:23:08.937Z,39.22
2022-07-29T12:24:11.871Z,38.45
2022-07-29T12:25:32.445Z,37.60
2022-07-29T12:26:21.815Z,36.36
2022-07-29T12:27:29.533Z,38.22
2022-07-29T12:28:28.429Z,38.03
2022-07-29T12:29:35.584Z,38.13
2022-07-29T12:30:35.819Z,36.25
2022-07-29T12:31:42.784Z,37.94
2022-07-29T12:32:43.409Z,37.46
2022-07-29T12:33:45.979Z,35.46
2022-07-29T12:34:48.540Z,36.30
2022-07-29T12:36:03.817Z,37.26
2022-07-29T12:36:55.825Z,36.57
2022-07-29T12:37:58.493Z,35.02
2022-07-29T12:39:01.058Z,37.33
2022-07-29T12:40:03.933Z,35.88
2022-07-29T12:41:07.828Z,36.32
2022-07-29T12:42:13.786Z,38.14
2022-07-29T12:43:15.318Z,37.74
2022-07-29T12:44:18.263Z,37.08
2022-07-29T12:45:20.872Z,37.82
2022-07-29T12:46:23.980Z,36.31
2022-07-29T12:47:26.611Z,35.99
2022-07-29T12:48:29.135Z,37.58
2022-07-29T12:49:31.743Z,36.67
2022-07-29T12:50:38.100Z,36.31
2022-07-29T12:51:40.667Z,34.91
2022-07-29T12:52:43.752Z,35.65
2022-07-29T12:53:46.415Z,36.33
2022-07-29T12:54:48.986Z,34.99
2022-07-29T12:55:51.917Z,36.06
2022-07-29T12:56:55.040Z,38.14
2022-07-29T12:57:57.610Z,37.27
2022-07-29T12:59:00.278Z,38.18
2022-07-29T13:00:03.252Z,38.32
2022-07-29T13:01:06.268Z,38.67
2022-07-29T13:02:10.803Z,38.17
2022-07-29T13:03:14.948Z,38.22
2022-07-29T13:04:17.923Z,38.95
2022-07-29T13:05:20.490Z,39.02
2022-07-29T13:06:24.800Z,40.30
2022-07-29T13:07:55.191Z,39.56
2022-07-29T13:08:31.831Z,39.33
2022-07-29T13:09:34.321Z,40.26
2022-07-29T13:10:37.012Z,40.28
2022-07-29T13:11:39.576Z,38.49
2022-07-29T13:12:42.166Z,38.37
2022-07-29T13:13:44.810Z,38.50
2022-07-29T13:14:47.390Z,37.23
2022-07-29T13:15:49.924Z,37.51
2022-07-29T13:16:52.715Z,38.78
2022-07-29T13:17:55.383Z,39.39
2022-07-29T13:18:57.935Z,39.50
2022-07-29T13:20:00.525Z,40.19
2022-07-29T13:21:05.039Z,40.21
2022-07-29T13:22:07.599Z,40.85
2022-07-29T13:23:10.582Z,41.91
2022-07-29T13:24:15.756Z,40.33
2022-07-29T13:25:17.638Z,40.48